sensor_id;sensor_type;location;lat;lon;timestamp;P1;durP1;ratioP1;P2;durP2;ratioP2
1062;SDS011;520;50.932;6.962;2023-02-11T00:00:22;20.80;;;15.50;;
1062;SDS011;520;50.932;6.962;2023-02-11T00:02:49;20.57;;;15.73;;
1062;SDS011;520;50.932;6.962;2023-02-11T00:05:17;18.33;;;14.80;;
1062;SDS011;520;50.932;6.962;2023-02-11T00:07:43;22.80;;;16.63;;
1062;SDS011;520;50.932;6.962;2023-02-11T00:10:10;22.73;;;17.37;;
1062;SDS011;520;50.932;6.962;2023-02-11T00:12:37;22.23;;;15.90;;
1062;SDS011;520;50.932;6.962;2023-02-11T00:15:05;19.77;;;15.50;;
1062;SDS011;520;50.932;6.962;2023-02-11T00:17:33;16.87;;;13.90;;
1062;SDS011;520;50.932;6.962;2023-02-11T00:20:00;17.47;;;14.73;;
1062;SDS011;520;50.932;6.962;2023-02-11T00:22:27;18.37;;;14.13;;
1062;SDS011;520;50.932;6.962;2023-02-11T00:24:54;19.30;;;14.27;;
1062;SDS011;520;50.932;6.962;2023-02-11T00:27:22;21.27;;;14.43;;
1062;SDS011;520;50.932;6.962;2023-02-11T00:29:49;21.93;;;13.83;;
1062;SDS011;520;50.932;6.962;2023-02-11T00:32:16;17.13;;;14.27;;
1062;SDS011;520;50.932;6.962;2023-02-11T00:34:43;19.27;;;14.27;;
1062;SDS011;520;50.932;6.962;2023-02-11T00:37:10;20.13;;;14.00;;
1062;SDS011;520;50.932;6.962;2023-02-11T00:39:37;17.90;;;14.27;;
1062;SDS011;520;50.932;6.962;2023-02-11T00:42:05;18.03;;;14.53;;
1062;SDS011;520;50.932;6.962;2023-02-11T00:44:31;18.10;;;13.30;;
1062;SDS011;520;50.932;6.962;2023-02-11T00:46:59;17.07;;;13.17;;
1062;SDS011;520;50.932;6.962;2023-02-11T00:49:26;19.53;;;12.30;;
1062;SDS011;520;50.932;6.962;2023-02-11T00:51:53;15.47;;;12.87;;
1062;SDS011;520;50.932;6.962;2023-02-11T00:54:20;17.93;;;12.77;;
1062;SDS011;520;50.932;6.962;2023-02-11T00:56:47;19.93;;;12.00;;
1062;SDS011;520;50.932;6.962;2023-02-11T00:59:14;14.73;;;12.53;;
1062;SDS011;520;50.932;6.962;2023-02-11T01:01:41;14.97;;;12.27;;
1062;SDS011;520;50.932;6.962;2023-02-11T01:04:08;20.73;;;13.10;;
1062;SDS011;520;50.932;6.962;2023-02-11T01:06:35;16.77;;;12.47;;
1062;SDS011;520;50.932;6.962;2023-02-11T01:09:02;17.63;;;12.67;;
1062;SDS011;520;50.932;6.962;2023-02-11T01:11:29;20.73;;;12.27;;
1062;SDS011;520;50.932;6.962;2023-02-11T01:13:57;20.27;;;12.40;;
1062;SDS011;520;50.932;6.962;2023-02-11T01:16:25;15.47;;;12.90;;
1062;SDS011;520;50.932;6.962;2023-02-11T01:18:52;15.90;;;11.80;;
1062;SDS011;520;50.932;6.962;2023-02-11T01:21:19;16.83;;;13.03;;
1062;SDS011;520;50.932;6.962;2023-02-11T01:23:46;17.77;;;12.10;;
1062;SDS011;520;50.932;6.962;2023-02-11T01:26:13;14.40;;;12.17;;
1062;SDS011;520;50.932;6.962;2023-02-11T01:28:40;17.07;;;12.13;;
1062;SDS011;520;50.932;6.962;2023-02-11T01:31:06;16.50;;;12.33;;
1062;SDS011;520;50.932;6.962;2023-02-11T01:33:34;17.47;;;12.80;;
1062;SDS011;520;50.932;6.962;2023-02-11T01:36:01;17.20;;;13.73;;
1062;SDS011;520;50.932;6.962;2023-02-11T01:38:30;20.33;;;12.60;;
1062;SDS011;520;50.932;6.962;2023-02-11T01:40:59;15.27;;;13.50;;
1062;SDS011;520;50.932;6.962;2023-02-11T01:43:30;18.17;;;13.30;;
1062;SDS011;520;50.932;6.962;2023-02-11T01:46:23;17.87;;;13.77;;
1062;SDS011;520;50.932;6.962;2023-02-11T01:48:58;16.60;;;13.87;;
1062;SDS011;520;50.932;6.962;2023-02-11T01:51:39;16.73;;;13.07;;
1062;SDS011;520;50.932;6.962;2023-02-11T01:54:08;17.50;;;12.70;;
1062;SDS011;520;50.932;6.962;2023-02-11T01:57:10;17.17;;;13.07;;
1062;SDS011;520;50.932;6.962;2023-02-11T02:02:47;25.80;;;15.17;;
1062;SDS011;520;50.932;6.962;2023-02-11T02:10:54;19.90;;;14.07;;
1062;SDS011;520;50.932;6.962;2023-02-11T02:13:23;22.83;;;13.73;;
1062;SDS011;520;50.932;6.962;2023-02-11T02:15:56;23.73;;;14.83;;
1062;SDS011;520;50.932;6.962;2023-02-11T02:29:14;21.40;;;15.40;;
1062;SDS011;520;50.932;6.962;2023-02-11T02:34:52;21.90;;;15.10;;
1062;SDS011;520;50.932;6.962;2023-02-11T02:37:40;23.07;;;15.13;;
1062;SDS011;520;50.932;6.962;2023-02-11T02:40:28;24.33;;;15.00;;
1062;SDS011;520;50.932;6.962;2023-02-11T02:42:59;21.37;;;15.13;;
1062;SDS011;520;50.932;6.962;2023-02-11T02:45:28;22.97;;;15.80;;
1062;SDS011;520;50.932;6.962;2023-02-11T02:47:56;22.97;;;15.63;;
1062;SDS011;520;50.932;6.962;2023-02-11T02:50:25;22.33;;;15.80;;
1062;SDS011;520;50.932;6.962;2023-02-11T02:55:54;22.90;;;15.63;;
1062;SDS011;520;50.932;6.962;2023-02-11T03:01:41;22.43;;;14.97;;
1062;SDS011;520;50.932;6.962;2023-02-11T03:04:36;20.87;;;15.00;;
1062;SDS011;520;50.932;6.962;2023-02-11T03:07:24;27.47;;;15.33;;
1062;SDS011;520;50.932;6.962;2023-02-11T03:10:18;20.60;;;15.10;;
1062;SDS011;520;50.932;6.962;2023-02-11T03:12:50;24.40;;;16.00;;
1062;SDS011;520;50.932;6.962;2023-02-11T03:15:20;31.97;;;15.87;;
1062;SDS011;520;50.932;6.962;2023-02-11T03:17:50;24.03;;;17.07;;
1062;SDS011;520;50.932;6.962;2023-02-11T03:20:20;27.50;;;16.83;;
1062;SDS011;520;50.932;6.962;2023-02-11T03:26:17;20.87;;;16.13;;
1062;SDS011;520;50.932;6.962;2023-02-11T03:28:49;27.47;;;16.93;;
1062;SDS011;520;50.932;6.962;2023-02-11T03:31:28;33.37;;;19.13;;
1062;SDS011;520;50.932;6.962;2023-02-11T03:36:40;21.87;;;15.67;;
1062;SDS011;520;50.932;6.962;2023-02-11T03:39:16;23.70;;;15.40;;
1062;SDS011;520;50.932;6.962;2023-02-11T03:41:47;25.83;;;15.73;;
1062;SDS011;520;50.932;6.962;2023-02-11T03:44:15;25.60;;;16.70;;
1062;SDS011;520;50.932;6.962;2023-02-11T03:46:47;23.40;;;17.00;;
1062;SDS011;520;50.932;6.962;2023-02-11T03:49:18;21.07;;;15.33;;
1062;SDS011;520;50.932;6.962;2023-02-11T03:51:48;20.53;;;15.43;;
1062;SDS011;520;50.932;6.962;2023-02-11T03:54:18;24.67;;;15.93;;
1062;SDS011;520;50.932;6.962;2023-02-11T03:56:50;22.20;;;15.70;;
1062;SDS011;520;50.932;6.962;2023-02-11T03:59:19;22.10;;;15.90;;
1062;SDS011;520;50.932;6.962;2023-02-11T04:01:46;23.20;;;15.77;;
1062;SDS011;520;50.932;6.962;2023-02-11T04:04:15;20.17;;;14.13;;
1062;SDS011;520;50.932;6.962;2023-02-11T04:06:45;18.53;;;14.33;;
1062;SDS011;520;50.932;6.962;2023-02-11T04:09:11;23.33;;;15.77;;
1062;SDS011;520;50.932;6.962;2023-02-11T04:11:38;24.20;;;16.00;;
1062;SDS011;520;50.932;6.962;2023-02-11T04:14:06;23.63;;;14.60;;
1062;SDS011;520;50.932;6.962;2023-02-11T04:16:33;20.23;;;14.80;;
1062;SDS011;520;50.932;6.962;2023-02-11T04:19:00;23.87;;;15.73;;
1062;SDS011;520;50.932;6.962;2023-02-11T04:21:27;19.87;;;15.33;;
1062;SDS011;520;50.932;6.962;2023-02-11T04:23:54;22.70;;;15.77;;
1062;SDS011;520;50.932;6.962;2023-02-11T04:26:22;20.97;;;16.50;;
1062;SDS011;520;50.932;6.962;2023-02-11T04:28:50;22.87;;;16.10;;
1062;SDS011;520;50.932;6.962;2023-02-11T04:31:18;22.13;;;15.30;;
1062;SDS011;520;50.932;6.962;2023-02-11T04:33:45;29.53;;;16.70;;
1062;SDS011;520;50.932;6.962;2023-02-11T04:36:12;23.77;;;15.70;;
1062;SDS011;520;50.932;6.962;2023-02-11T04:38:39;23.00;;;14.40;;
1062;SDS011;520;50.932;6.962;2023-02-11T04:41:07;18.70;;;13.77;;
1062;SDS011;520;50.932;6.962;2023-02-11T04:43:34;25.60;;;15.17;;
1062;SDS011;520;50.932;6.962;2023-02-11T04:46:02;25.30;;;15.97;;
1062;SDS011;520;50.932;6.962;2023-02-11T04:48:29;20.13;;;14.80;;
1062;SDS011;520;50.932;6.962;2023-02-11T04:50:56;24.53;;;15.93;;
1062;SDS011;520;50.932;6.962;2023-02-11T04:53:23;20.70;;;15.20;;
1062;SDS011;520;50.932;6.962;2023-02-11T04:55:50;23.70;;;14.13;;
1062;SDS011;520;50.932;6.962;2023-02-11T04:58:18;24.50;;;15.27;;
1062;SDS011;520;50.932;6.962;2023-02-11T05:00:46;19.20;;;15.47;;
1062;SDS011;520;50.932;6.962;2023-02-11T05:03:13;26.37;;;16.40;;
1062;SDS011;520;50.932;6.962;2023-02-11T05:05:41;25.00;;;15.53;;
1062;SDS011;520;50.932;6.962;2023-02-11T05:08:09;23.90;;;15.27;;
1062;SDS011;520;50.932;6.962;2023-02-11T05:10:36;35.00;;;15.23;;
1062;SDS011;520;50.932;6.962;2023-02-11T05:13:03;21.07;;;15.00;;
1062;SDS011;520;50.932;6.962;2023-02-11T05:15:30;22.87;;;15.60;;
1062;SDS011;520;50.932;6.962;2023-02-11T05:17:57;23.40;;;18.17;;
1062;SDS011;520;50.932;6.962;2023-02-11T05:20:24;19.07;;;14.17;;
1062;SDS011;520;50.932;6.962;2023-02-11T05:22:51;25.13;;;14.83;;
1062;SDS011;520;50.932;6.962;2023-02-11T05:25:18;20.40;;;15.03;;
1062;SDS011;520;50.932;6.962;2023-02-11T05:27:46;20.80;;;15.20;;
1062;SDS011;520;50.932;6.962;2023-02-11T05:30:13;21.30;;;15.30;;
1062;SDS011;520;50.932;6.962;2023-02-11T05:32:40;20.50;;;14.47;;
1062;SDS011;520;50.932;6.962;2023-02-11T05:35:07;19.43;;;14.83;;
1062;SDS011;520;50.932;6.962;2023-02-11T05:37:34;19.17;;;14.67;;
1062;SDS011;520;50.932;6.962;2023-02-11T05:40:02;19.90;;;14.50;;
1062;SDS011;520;50.932;6.962;2023-02-11T05:42:29;28.43;;;16.57;;
1062;SDS011;520;50.932;6.962;2023-02-11T05:44:56;21.73;;;15.80;;
1062;SDS011;520;50.932;6.962;2023-02-11T05:47:23;24.03;;;15.23;;
1062;SDS011;520;50.932;6.962;2023-02-11T05:49:52;21.00;;;15.63;;
1062;SDS011;520;50.932;6.962;2023-02-11T05:52:20;23.10;;;15.73;;
1062;SDS011;520;50.932;6.962;2023-02-11T05:54:48;24.30;;;15.30;;
1062;SDS011;520;50.932;6.962;2023-02-11T05:57:16;21.53;;;16.00;;
1062;SDS011;520;50.932;6.962;2023-02-11T05:59:44;23.20;;;15.60;;
1062;SDS011;520;50.932;6.962;2023-02-11T06:02:11;24.83;;;18.00;;
1062;SDS011;520;50.932;6.962;2023-02-11T06:04:38;23.30;;;14.97;;
1062;SDS011;520;50.932;6.962;2023-02-11T06:07:05;23.13;;;14.57;;
1062;SDS011;520;50.932;6.962;2023-02-11T06:09:33;25.20;;;15.77;;
1062;SDS011;520;50.932;6.962;2023-02-11T06:12:00;27.63;;;16.57;;
1062;SDS011;520;50.932;6.962;2023-02-11T06:14:27;25.07;;;17.13;;
1062;SDS011;520;50.932;6.962;2023-02-11T06:16:54;22.13;;;15.13;;
1062;SDS011;520;50.932;6.962;2023-02-11T06:19:21;20.47;;;15.27;;
1062;SDS011;520;50.932;6.962;2023-02-11T06:21:48;25.63;;;15.60;;
1062;SDS011;520;50.932;6.962;2023-02-11T06:24:15;27.80;;;16.83;;
1062;SDS011;520;50.932;6.962;2023-02-11T06:26:58;24.73;;;16.27;;
1062;SDS011;520;50.932;6.962;2023-02-11T06:29:25;24.67;;;15.17;;
1062;SDS011;520;50.932;6.962;2023-02-11T06:31:52;24.90;;;15.17;;
1062;SDS011;520;50.932;6.962;2023-02-11T06:34:19;21.43;;;15.40;;
1062;SDS011;520;50.932;6.962;2023-02-11T06:36:46;30.67;;;16.03;;
1062;SDS011;520;50.932;6.962;2023-02-11T06:39:13;27.00;;;17.37;;
1062;SDS011;520;50.932;6.962;2023-02-11T06:41:40;22.27;;;16.60;;
1062;SDS011;520;50.932;6.962;2023-02-11T06:44:08;22.30;;;17.10;;
1062;SDS011;520;50.932;6.962;2023-02-11T06:46:35;21.83;;;16.00;;
1062;SDS011;520;50.932;6.962;2023-02-11T06:49:02;31.60;;;16.97;;
1062;SDS011;520;50.932;6.962;2023-02-11T06:51:29;25.33;;;16.67;;
1062;SDS011;520;50.932;6.962;2023-02-11T06:53:55;23.40;;;16.37;;
1062;SDS011;520;50.932;6.962;2023-02-11T06:56:22;21.73;;;15.83;;
1062;SDS011;520;50.932;6.962;2023-02-11T06:58:52;28.40;;;16.63;;
1062;SDS011;520;50.932;6.962;2023-02-11T07:01:22;23.60;;;16.00;;
1062;SDS011;520;50.932;6.962;2023-02-11T07:03:50;23.20;;;15.17;;
1062;SDS011;520;50.932;6.962;2023-02-11T07:06:20;23.80;;;17.70;;
1062;SDS011;520;50.932;6.962;2023-02-11T07:08:49;30.40;;;17.00;;
1062;SDS011;520;50.932;6.962;2023-02-11T07:11:18;25.53;;;16.33;;
1062;SDS011;520;50.932;6.962;2023-02-11T07:13:51;28.83;;;17.60;;
1062;SDS011;520;50.932;6.962;2023-02-11T07:16:19;24.73;;;17.07;;
1062;SDS011;520;50.932;6.962;2023-02-11T07:18:47;21.90;;;15.40;;
1062;SDS011;520;50.932;6.962;2023-02-11T07:21:16;23.60;;;15.50;;
1062;SDS011;520;50.932;6.962;2023-02-11T07:23:44;22.23;;;15.53;;
1062;SDS011;520;50.932;6.962;2023-02-11T07:26:13;24.93;;;16.20;;
1062;SDS011;520;50.932;6.962;2023-02-11T07:28:42;28.57;;;16.30;;
1062;SDS011;520;50.932;6.962;2023-02-11T07:33:38;22.90;;;14.43;;
1062;SDS011;520;50.932;6.962;2023-02-11T07:36:06;27.67;;;17.03;;
1062;SDS011;520;50.932;6.962;2023-02-11T07:38:35;22.63;;;15.07;;
1062;SDS011;520;50.932;6.962;2023-02-11T07:41:03;24.10;;;16.00;;
1062;SDS011;520;50.932;6.962;2023-02-11T07:43:32;27.60;;;16.80;;
1062;SDS011;520;50.932;6.962;2023-02-11T07:46:04;25.17;;;16.67;;
1062;SDS011;520;50.932;6.962;2023-02-11T07:48:33;23.10;;;15.70;;
1062;SDS011;520;50.932;6.962;2023-02-11T07:51:19;27.30;;;15.83;;
1062;SDS011;520;50.932;6.962;2023-02-11T07:53:51;28.43;;;16.13;;
1062;SDS011;520;50.932;6.962;2023-02-11T07:56:19;26.53;;;16.33;;
1062;SDS011;520;50.932;6.962;2023-02-11T07:58:47;22.20;;;15.80;;
1062;SDS011;520;50.932;6.962;2023-02-11T08:01:22;24.10;;;16.00;;
1062;SDS011;520;50.932;6.962;2023-02-11T08:03:53;25.67;;;17.20;;
1062;SDS011;520;50.932;6.962;2023-02-11T08:06:24;24.93;;;15.10;;
1062;SDS011;520;50.932;6.962;2023-02-11T08:08:53;23.73;;;16.40;;
1062;SDS011;520;50.932;6.962;2023-02-11T08:11:23;25.40;;;16.80;;
1062;SDS011;520;50.932;6.962;2023-02-11T08:13:51;27.47;;;18.30;;
1062;SDS011;520;50.932;6.962;2023-02-11T08:16:24;28.40;;;16.90;;
1062;SDS011;520;50.932;6.962;2023-02-11T08:18:52;20.63;;;15.63;;
1062;SDS011;520;50.932;6.962;2023-02-11T08:21:22;24.53;;;16.23;;
1062;SDS011;520;50.932;6.962;2023-02-11T08:23:50;30.37;;;15.93;;
1062;SDS011;520;50.932;6.962;2023-02-11T08:26:22;27.90;;;15.93;;
1062;SDS011;520;50.932;6.962;2023-02-11T08:28:52;27.93;;;16.97;;
1062;SDS011;520;50.932;6.962;2023-02-11T08:31:21;24.80;;;16.63;;
1062;SDS011;520;50.932;6.962;2023-02-11T08:33:50;27.90;;;16.83;;
1062;SDS011;520;50.932;6.962;2023-02-11T08:36:21;23.83;;;15.27;;
1062;SDS011;520;50.932;6.962;2023-02-11T08:38:53;27.53;;;16.23;;
1062;SDS011;520;50.932;6.962;2023-02-11T08:41:37;24.97;;;15.43;;
1062;SDS011;520;50.932;6.962;2023-02-11T08:44:04;26.60;;;16.17;;
1062;SDS011;520;50.932;6.962;2023-02-11T08:46:32;25.03;;;15.13;;
1062;SDS011;520;50.932;6.962;2023-02-11T08:48:59;25.30;;;17.63;;
1062;SDS011;520;50.932;6.962;2023-02-11T08:51:27;26.63;;;17.57;;
1062;SDS011;520;50.932;6.962;2023-02-11T08:53:56;24.77;;;16.87;;
1062;SDS011;520;50.932;6.962;2023-02-11T08:56:24;25.80;;;16.63;;
1062;SDS011;520;50.932;6.962;2023-02-11T08:58:53;25.80;;;17.63;;
1062;SDS011;520;50.932;6.962;2023-02-11T09:01:21;22.73;;;15.17;;
1062;SDS011;520;50.932;6.962;2023-02-11T09:03:56;23.40;;;14.87;;
1062;SDS011;520;50.932;6.962;2023-02-11T09:06:24;27.17;;;16.37;;
1062;SDS011;520;50.932;6.962;2023-02-11T09:08:52;19.93;;;15.17;;
1062;SDS011;520;50.932;6.962;2023-02-11T09:11:27;28.20;;;16.50;;
1062;SDS011;520;50.932;6.962;2023-02-11T09:14:00;25.03;;;16.70;;
1062;SDS011;520;50.932;6.962;2023-02-11T09:16:28;26.27;;;16.97;;
1062;SDS011;520;50.932;6.962;2023-02-11T09:18:58;26.17;;;14.47;;
1062;SDS011;520;50.932;6.962;2023-02-11T09:21:27;23.83;;;16.57;;
1062;SDS011;520;50.932;6.962;2023-02-11T09:23:54;21.03;;;15.20;;
1062;SDS011;520;50.932;6.962;2023-02-11T09:26:24;24.80;;;15.27;;
1062;SDS011;520;50.932;6.962;2023-02-11T09:28:54;23.40;;;13.60;;
1062;SDS011;520;50.932;6.962;2023-02-11T09:31:21;24.40;;;15.30;;
1062;SDS011;520;50.932;6.962;2023-02-11T09:33:53;22.33;;;16.30;;
1062;SDS011;520;50.932;6.962;2023-02-11T09:36:24;28.43;;;17.93;;
1062;SDS011;520;50.932;6.962;2023-02-11T09:38:54;22.50;;;16.00;;
1062;SDS011;520;50.932;6.962;2023-02-11T09:43:59;23.80;;;15.30;;
1062;SDS011;520;50.932;6.962;2023-02-11T09:46:31;21.80;;;15.63;;
1062;SDS011;520;50.932;6.962;2023-02-11T09:49:01;24.03;;;15.90;;
1062;SDS011;520;50.932;6.962;2023-02-11T09:51:47;26.60;;;16.07;;
1062;SDS011;520;50.932;6.962;2023-02-11T09:54:18;26.20;;;15.70;;
1062;SDS011;520;50.932;6.962;2023-02-11T09:56:51;21.83;;;14.20;;
1062;SDS011;520;50.932;6.962;2023-02-11T09:59:18;19.17;;;14.73;;
1062;SDS011;520;50.932;6.962;2023-02-11T10:01:58;24.57;;;14.60;;
1062;SDS011;520;50.932;6.962;2023-02-11T10:07:37;22.77;;;14.17;;
1062;SDS011;520;50.932;6.962;2023-02-11T10:10:21;20.53;;;14.57;;
1062;SDS011;520;50.932;6.962;2023-02-11T10:22:05;21.90;;;17.23;;
1062;SDS011;520;50.932;6.962;2023-02-11T10:24:56;23.23;;;15.43;;
1062;SDS011;520;50.932;6.962;2023-02-11T10:27:27;24.80;;;15.70;;
1062;SDS011;520;50.932;6.962;2023-02-11T10:30:10;23.67;;;16.30;;
1062;SDS011;520;50.932;6.962;2023-02-11T10:33:14;19.83;;;13.30;;
1062;SDS011;520;50.932;6.962;2023-02-11T10:35:50;21.23;;;14.40;;
1062;SDS011;520;50.932;6.962;2023-02-11T10:38:17;19.60;;;13.40;;
1062;SDS011;520;50.932;6.962;2023-02-11T10:40:44;24.53;;;15.97;;
1062;SDS011;520;50.932;6.962;2023-02-11T10:43:12;24.90;;;14.77;;
1062;SDS011;520;50.932;6.962;2023-02-11T10:45:48;20.63;;;12.80;;
1062;SDS011;520;50.932;6.962;2023-02-11T10:53:39;21.33;;;15.30;;
1062;SDS011;520;50.932;6.962;2023-02-11T10:56:06;21.97;;;14.20;;
1062;SDS011;520;50.932;6.962;2023-02-11T10:58:39;24.40;;;15.13;;
1062;SDS011;520;50.932;6.962;2023-02-11T11:01:11;21.83;;;14.67;;
1062;SDS011;520;50.932;6.962;2023-02-11T11:03:50;28.30;;;19.47;;
1062;SDS011;520;50.932;6.962;2023-02-11T11:06:28;24.77;;;14.93;;
1062;SDS011;520;50.932;6.962;2023-02-11T11:08:57;26.73;;;16.30;;
1062;SDS011;520;50.932;6.962;2023-02-11T11:11:25;24.30;;;15.77;;
1062;SDS011;520;50.932;6.962;2023-02-11T11:13:54;24.67;;;15.80;;
1062;SDS011;520;50.932;6.962;2023-02-11T11:18:53;20.03;;;14.60;;
1062;SDS011;520;50.932;6.962;2023-02-11T11:21:53;21.23;;;14.37;;
1062;SDS011;520;50.932;6.962;2023-02-11T11:26:54;22.87;;;15.37;;
1062;SDS011;520;50.932;6.962;2023-02-11T11:31:56;25.47;;;15.80;;
1062;SDS011;520;50.932;6.962;2023-02-11T11:34:30;23.90;;;14.80;;
1062;SDS011;520;50.932;6.962;2023-02-11T11:37:09;22.10;;;15.50;;
1062;SDS011;520;50.932;6.962;2023-02-11T11:39:38;24.40;;;14.93;;
1062;SDS011;520;50.932;6.962;2023-02-11T11:42:21;25.50;;;15.67;;
1062;SDS011;520;50.932;6.962;2023-02-11T11:45:01;24.03;;;15.20;;
1062;SDS011;520;50.932;6.962;2023-02-11T11:50:19;21.60;;;14.60;;
1062;SDS011;520;50.932;6.962;2023-02-11T11:53:19;19.43;;;13.67;;
1062;SDS011;520;50.932;6.962;2023-02-11T11:56:08;22.10;;;14.87;;
1062;SDS011;520;50.932;6.962;2023-02-11T11:58:39;22.03;;;14.83;;
1062;SDS011;520;50.932;6.962;2023-02-11T12:06:32;22.50;;;14.67;;
1062;SDS011;520;50.932;6.962;2023-02-11T12:14:49;22.97;;;15.73;;
1062;SDS011;520;50.932;6.962;2023-02-11T12:25:55;21.73;;;16.10;;
1062;SDS011;520;50.932;6.962;2023-02-11T12:28:39;23.13;;;16.30;;
1062;SDS011;520;50.932;6.962;2023-02-11T12:48:10;27.00;;;15.63;;
1062;SDS011;520;50.932;6.962;2023-02-11T12:54:14;25.17;;;16.80;;
1062;SDS011;520;50.932;6.962;2023-02-11T12:59:57;29.63;;;17.37;;
1062;SDS011;520;50.932;6.962;2023-02-11T13:02:47;28.10;;;16.97;;
1062;SDS011;520;50.932;6.962;2023-02-11T13:05:24;30.47;;;18.20;;
1062;SDS011;520;50.932;6.962;2023-02-11T13:08:10;28.47;;;17.53;;
1062;SDS011;520;50.932;6.962;2023-02-11T13:10:53;28.50;;;17.27;;
1062;SDS011;520;50.932;6.962;2023-02-11T13:13:34;27.73;;;17.93;;
1062;SDS011;520;50.932;6.962;2023-02-11T13:16:37;29.13;;;17.60;;
1062;SDS011;520;50.932;6.962;2023-02-11T13:19:31;28.90;;;18.40;;
1062;SDS011;520;50.932;6.962;2023-02-11T13:27:43;34.60;;;23.10;;
1062;SDS011;520;50.932;6.962;2023-02-11T13:38:03;28.37;;;18.30;;
1062;SDS011;520;50.932;6.962;2023-02-11T13:40:34;29.67;;;18.17;;
1062;SDS011;520;50.932;6.962;2023-02-11T13:43:04;26.70;;;18.47;;
1062;SDS011;520;50.932;6.962;2023-02-11T13:48:16;29.97;;;19.87;;
1062;SDS011;520;50.932;6.962;2023-02-11T13:50:47;32.77;;;19.67;;
1062;SDS011;520;50.932;6.962;2023-02-11T13:53:17;30.27;;;18.97;;
1062;SDS011;520;50.932;6.962;2023-02-11T13:55:46;26.47;;;18.10;;
1062;SDS011;520;50.932;6.962;2023-02-11T13:58:17;28.30;;;19.13;;
1062;SDS011;520;50.932;6.962;2023-02-11T14:01:01;36.43;;;21.50;;
1062;SDS011;520;50.932;6.962;2023-02-11T14:03:28;32.10;;;20.53;;
1062;SDS011;520;50.932;6.962;2023-02-11T14:11:53;29.43;;;19.87;;
1062;SDS011;520;50.932;6.962;2023-02-11T14:15:00;37.77;;;22.87;;
1062;SDS011;520;50.932;6.962;2023-02-11T14:17:31;28.77;;;18.60;;
1062;SDS011;520;50.932;6.962;2023-02-11T14:20:00;31.40;;;18.87;;
1062;SDS011;520;50.932;6.962;2023-02-11T14:22:30;32.63;;;18.93;;
1062;SDS011;520;50.932;6.962;2023-02-11T14:25:21;29.50;;;18.40;;
1062;SDS011;520;50.932;6.962;2023-02-11T14:27:56;28.60;;;18.10;;
1062;SDS011;520;50.932;6.962;2023-02-11T14:30:36;29.33;;;18.37;;
1062;SDS011;520;50.932;6.962;2023-02-11T14:39:37;29.60;;;18.53;;
1062;SDS011;520;50.932;6.962;2023-02-11T14:42:14;31.07;;;19.10;;
1062;SDS011;520;50.932;6.962;2023-02-11T14:44:46;26.97;;;18.20;;
1062;SDS011;520;50.932;6.962;2023-02-11T14:47:19;27.17;;;19.30;;
1062;SDS011;520;50.932;6.962;2023-02-11T14:50:13;26.60;;;17.87;;
1062;SDS011;520;50.932;6.962;2023-02-11T14:52:52;29.37;;;17.80;;
1062;SDS011;520;50.932;6.962;2023-02-11T14:55:34;28.07;;;18.37;;
1062;SDS011;520;50.932;6.962;2023-02-11T14:58:07;28.27;;;18.60;;
1062;SDS011;520;50.932;6.962;2023-02-11T15:00:46;30.40;;;19.30;;
1062;SDS011;520;50.932;6.962;2023-02-11T15:03:23;27.77;;;19.30;;
1062;SDS011;520;50.932;6.962;2023-02-11T15:08:47;31.13;;;18.20;;
1062;SDS011;520;50.932;6.962;2023-02-11T15:11:18;28.73;;;19.17;;
1062;SDS011;520;50.932;6.962;2023-02-11T15:13:48;28.77;;;17.27;;
1062;SDS011;520;50.932;6.962;2023-02-11T15:16:22;28.57;;;18.77;;
1062;SDS011;520;50.932;6.962;2023-02-11T15:18:53;28.30;;;18.83;;
1062;SDS011;520;50.932;6.962;2023-02-11T15:21:27;30.20;;;18.87;;
1062;SDS011;520;50.932;6.962;2023-02-11T15:23:57;30.97;;;18.90;;
1062;SDS011;520;50.932;6.962;2023-02-11T15:26:26;29.23;;;19.37;;
1062;SDS011;520;50.932;6.962;2023-02-11T15:28:53;29.90;;;20.03;;
1062;SDS011;520;50.932;6.962;2023-02-11T15:31:22;26.47;;;18.57;;
1062;SDS011;520;50.932;6.962;2023-02-11T15:33:50;27.50;;;18.27;;
1062;SDS011;520;50.932;6.962;2023-02-11T15:36:18;31.70;;;19.63;;
1062;SDS011;520;50.932;6.962;2023-02-11T15:42:16;28.97;;;18.50;;
1062;SDS011;520;50.932;6.962;2023-02-11T15:44:48;29.27;;;18.70;;
1062;SDS011;520;50.932;6.962;2023-02-11T15:47:32;28.53;;;18.73;;
1062;SDS011;520;50.932;6.962;2023-02-11T15:50:00;29.13;;;18.47;;
1062;SDS011;520;50.932;6.962;2023-02-11T15:52:27;34.20;;;19.20;;
1062;SDS011;520;50.932;6.962;2023-02-11T15:54:55;24.97;;;17.73;;
1062;SDS011;520;50.932;6.962;2023-02-11T15:57:25;27.83;;;18.30;;
1062;SDS011;520;50.932;6.962;2023-02-11T15:59:53;27.20;;;18.90;;
1062;SDS011;520;50.932;6.962;2023-02-11T16:02:29;28.10;;;19.03;;
1062;SDS011;520;50.932;6.962;2023-02-11T16:05:02;34.40;;;19.57;;
1062;SDS011;520;50.932;6.962;2023-02-11T16:10:19;27.60;;;18.03;;
1062;SDS011;520;50.932;6.962;2023-02-11T16:12:51;32.70;;;19.43;;
1062;SDS011;520;50.932;6.962;2023-02-11T16:17:55;29.27;;;18.10;;
1062;SDS011;520;50.932;6.962;2023-02-11T16:20:22;28.33;;;18.90;;
1062;SDS011;520;50.932;6.962;2023-02-11T16:22:49;28.53;;;19.00;;
1062;SDS011;520;50.932;6.962;2023-02-11T16:25:17;28.60;;;18.80;;
1062;SDS011;520;50.932;6.962;2023-02-11T16:27:47;30.27;;;20.97;;
1062;SDS011;520;50.932;6.962;2023-02-11T16:33:00;27.03;;;18.40;;
1062;SDS011;520;50.932;6.962;2023-02-11T16:35:26;31.37;;;19.83;;
1062;SDS011;520;50.932;6.962;2023-02-11T16:37:53;33.87;;;20.70;;
1062;SDS011;520;50.932;6.962;2023-02-11T16:40:20;33.53;;;20.07;;
1062;SDS011;520;50.932;6.962;2023-02-11T16:42:48;30.40;;;19.07;;
1062;SDS011;520;50.932;6.962;2023-02-11T16:45:17;33.23;;;20.00;;
1062;SDS011;520;50.932;6.962;2023-02-11T16:47:44;31.17;;;20.30;;
1062;SDS011;520;50.932;6.962;2023-02-11T16:50:19;27.03;;;18.80;;
1062;SDS011;520;50.932;6.962;2023-02-11T16:52:47;28.07;;;18.57;;
1062;SDS011;520;50.932;6.962;2023-02-11T16:55:14;32.73;;;21.40;;
1062;SDS011;520;50.932;6.962;2023-02-11T16:57:41;29.67;;;19.93;;
1062;SDS011;520;50.932;6.962;2023-02-11T17:00:08;27.60;;;19.57;;
1062;SDS011;520;50.932;6.962;2023-02-11T17:02:36;30.53;;;21.03;;
1062;SDS011;520;50.932;6.962;2023-02-11T17:05:04;33.27;;;21.43;;
1062;SDS011;520;50.932;6.962;2023-02-11T17:07:33;31.33;;;20.10;;
1062;SDS011;520;50.932;6.962;2023-02-11T17:10:00;31.10;;;20.17;;
1062;SDS011;520;50.932;6.962;2023-02-11T17:12:27;32.53;;;21.10;;
1062;SDS011;520;50.932;6.962;2023-02-11T17:14:53;32.60;;;20.87;;
1062;SDS011;520;50.932;6.962;2023-02-11T17:17:20;30.53;;;20.90;;
1062;SDS011;520;50.932;6.962;2023-02-11T17:19:48;32.73;;;20.20;;
1062;SDS011;520;50.932;6.962;2023-02-11T17:22:16;32.30;;;21.07;;
1062;SDS011;520;50.932;6.962;2023-02-11T17:24:43;33.47;;;21.00;;
1062;SDS011;520;50.932;6.962;2023-02-11T17:27:10;34.50;;;20.77;;
1062;SDS011;520;50.932;6.962;2023-02-11T17:29:37;32.27;;;20.70;;
1062;SDS011;520;50.932;6.962;2023-02-11T17:32:04;31.47;;;21.13;;
1062;SDS011;520;50.932;6.962;2023-02-11T17:34:40;32.70;;;20.77;;
1062;SDS011;520;50.932;6.962;2023-02-11T17:37:13;32.80;;;21.50;;
1062;SDS011;520;50.932;6.962;2023-02-11T17:39:44;36.03;;;23.20;;
1062;SDS011;520;50.932;6.962;2023-02-11T17:42:25;37.30;;;22.67;;
1062;SDS011;520;50.932;6.962;2023-02-11T17:44:52;32.60;;;21.97;;
1062;SDS011;520;50.932;6.962;2023-02-11T17:47:19;38.57;;;23.33;;
1062;SDS011;520;50.932;6.962;2023-02-11T17:49:46;35.70;;;21.20;;
1062;SDS011;520;50.932;6.962;2023-02-11T17:52:13;32.17;;;21.87;;
1062;SDS011;520;50.932;6.962;2023-02-11T17:54:41;33.47;;;23.30;;
1062;SDS011;520;50.932;6.962;2023-02-11T17:57:09;34.93;;;21.70;;